createdAt,value
2019-05-12T00:02:17.875Z,72.48
2019-05-12T00:05:05.429Z,72.01
2019-05-12T00:18:20.269Z,71.38
2019-05-12T00:21:08.774Z,71.28
2019-05-12T00:23:54.804Z,71.28
2019-05-12T00:26:41.223Z,71.54
2019-05-12T00:29:28.742Z,71.54
2019-05-12T00:34:48.209Z,71.17
2019-05-12T00:37:34.609Z,71.19
2019-05-12T00:40:21.046Z,70.61
2019-05-12T00:43:08.777Z,71.00
2019-05-12T00:45:55.455Z,71.23
2019-05-12T00:48:42.319Z,71.11
2019-05-12T00:51:29.033Z,71.11
2019-05-12T00:54:17.701Z,71.21
2019-05-12T00:57:03.520Z,71.21
2019-05-12T00:59:49.940Z,70.47
2019-05-12T01:02:37.989Z,70.59
2019-05-12T01:07:58.744Z,70.60
2019-05-12T01:13:31.627Z,70.05
2019-05-12T01:19:04.541Z,69.65
2019-05-12T01:21:32.150Z,69.65
2019-05-12T01:24:03.581Z,69.84
2019-05-12T01:26:31.281Z,70.03
2019-05-12T01:28:58.917Z,70.03
2019-05-12T01:31:28.971Z,69.37
2019-05-12T01:33:58.596Z,69.37
2019-05-12T01:36:28.624Z,69.57
2019-05-12T01:39:15.174Z,69.24
2019-05-12T01:42:01.621Z,69.86
2019-05-12T01:44:48.244Z,69.86
2019-05-12T01:47:38.191Z,70.06
2019-05-12T01:50:08.783Z,70.06
2019-05-12T01:52:35.838Z,69.73
2019-05-12T01:58:08.916Z,69.96
2019-05-12T02:03:29.390Z,69.36
2019-05-12T02:08:50.450Z,69.72
2019-05-12T02:11:37.991Z,69.43
2019-05-12T02:16:58.241Z,69.21
2019-05-12T02:19:48.006Z,69.28
2019-05-12T02:22:16.074Z,69.28
2019-05-12T02:25:02.525Z,69.60
2019-05-12T02:27:48.964Z,69.08
2019-05-12T02:30:19.215Z,69.08
2019-05-12T02:32:53.076Z,69.41
2019-05-12T02:35:16.241Z,69.35
2019-05-12T02:37:45.348Z,69.34
2019-05-12T02:40:15.094Z,69.36
2019-05-12T02:42:46.255Z,69.39
2019-05-12T02:45:35.135Z,69.42
2019-05-12T02:48:01.297Z,69.46
2019-05-12T02:50:29.023Z,69.46
2019-05-12T02:52:56.594Z,69.52
2019-05-12T02:55:45.073Z,69.30
2019-05-12T02:58:15.312Z,69.30
2019-05-12T03:00:45.560Z,69.57
2019-05-12T03:03:31.232Z,69.83
2019-05-12T03:05:58.994Z,69.83
2019-05-12T03:08:26.635Z,69.66
2019-05-12T03:11:14.769Z,70.14
2019-05-12T03:13:44.830Z,70.14
2019-05-12T03:16:14.700Z,69.78
2019-05-12T03:18:41.036Z,69.75
2019-05-12T03:21:27.482Z,70.13
2019-05-12T03:23:55.370Z,69.37
2019-05-12T03:26:24.958Z,69.37
2019-05-12T03:29:14.521Z,69.80
2019-05-12T03:31:59.743Z,70.03
2019-05-12T03:34:47.635Z,70.10
2019-05-12T03:37:17.719Z,70.10
2019-05-12T03:42:17.491Z,69.82
2019-05-12T03:44:56.735Z,69.84
2019-05-12T03:47:35.553Z,70.00
2019-05-12T03:50:24.386Z,69.89
2019-05-12T03:53:25.719Z,69.89
2019-05-12T03:55:42.353Z,70.27
2019-05-12T03:58:09.345Z,70.40
2019-05-12T04:00:56.048Z,70.30
2019-05-12T04:03:45.112Z,70.34
2019-05-12T04:06:15.117Z,70.34
2019-05-12T04:08:54.987Z,70.62
2019-05-12T04:11:29.362Z,70.14
2019-05-12T04:13:57.137Z,70.14
2019-05-12T04:16:27.604Z,70.44
2019-05-12T04:19:14.767Z,69.82
2019-05-12T04:21:44.627Z,69.82
2019-05-12T04:24:14.298Z,70.13
2019-05-12T04:27:01.107Z,69.64
2019-05-12T04:29:28.833Z,69.64
2019-05-12T04:31:58.220Z,69.92
2019-05-12T04:34:44.847Z,69.87
2019-05-12T04:37:14.885Z,69.84
2019-05-12T04:39:44.708Z,69.83
2019-05-12T04:42:14.710Z,69.87
2019-05-12T04:44:41.198Z,69.91
2019-05-12T04:47:08.983Z,69.93
2019-05-12T04:49:55.378Z,69.88
2019-05-12T04:52:24.862Z,69.88
2019-05-12T04:54:55.200Z,69.60
2019-05-12T04:57:21.736Z,69.60
2019-05-12T05:00:08.091Z,70.08
2019-05-12T05:02:54.573Z,69.74
2019-05-12T05:05:24.856Z,69.74
2019-05-12T05:07:54.837Z,69.52
2019-05-12T05:10:24.913Z,69.32
2019-05-12T05:12:54.347Z,69.11
2019-05-12T05:15:40.848Z,68.97
2019-05-12T05:21:14.117Z,68.33
2019-05-12T05:23:44.296Z,68.33
2019-05-12T05:26:24.355Z,68.65
2019-05-12T05:29:04.481Z,68.55
2019-05-12T05:31:53.398Z,68.17
2019-05-12T05:36:59.478Z,68.61
2019-05-12T05:39:24.345Z,68.20
2019-05-12T05:42:13.517Z,68.07
2019-05-12T05:47:14.078Z,67.71
2019-05-12T05:50:00.501Z,66.58
2019-05-12T05:52:33.450Z,66.58
2019-05-12T05:54:57.447Z,66.32
2019-05-12T05:57:28.522Z,66.10
2019-05-12T06:00:21.726Z,65.94
2019-05-12T06:02:44.146Z,65.86
2019-05-12T06:05:31.077Z,65.83
2019-05-12T06:08:00.116Z,65.66
2019-05-12T06:10:35.245Z,65.44
2019-05-12T06:12:57.929Z,65.34
2019-05-12T06:15:29.748Z,65.21
2019-05-12T06:17:57.299Z,64.96
2019-05-12T06:20:43.917Z,64.65
2019-05-12T06:23:14.791Z,64.65
2019-05-12T06:26:03.952Z,64.12
2019-05-12T06:31:29.633Z,63.87
2019-05-12T06:37:05.045Z,63.28
2019-05-12T06:39:28.459Z,63.09
2019-05-12T06:42:17.036Z,63.14
2019-05-12T06:44:48.812Z,63.14
2019-05-12T06:47:34.393Z,63.59
2019-05-12T06:50:20.357Z,63.49
2019-05-12T06:53:06.762Z,63.49
2019-05-12T06:55:54.092Z,62.08
2019-05-12T06:58:27.551Z,61.76
2019-05-12T07:01:16.689Z,61.31
2019-05-12T07:04:00.551Z,61.31
2019-05-12T07:06:28.447Z,60.81
2019-05-12T07:09:24.197Z,60.24
2019-05-12T07:12:06.976Z,60.02
2019-05-12T07:14:55.641Z,59.89
2019-05-12T07:20:29.343Z,60.02
2019-05-12T07:22:56.919Z,60.09
2019-05-12T07:25:44.504Z,59.71
2019-05-12T07:28:14.391Z,59.36
2019-05-12T07:30:44.099Z,59.27
2019-05-12T07:33:14.336Z,59.15
2019-05-12T07:35:44.666Z,59.15
2019-05-12T07:38:20.555Z,58.59
2019-05-12T07:40:41.501Z,58.77
2019-05-12T07:43:16.239Z,58.77
2019-05-12T07:45:38.731Z,59.05
2019-05-12T07:48:10.179Z,59.20
2019-05-12T07:50:37.171Z,59.90
2019-05-12T07:53:13.779Z,59.90
2019-05-12T07:55:47.570Z,60.13
2019-05-12T07:58:29.265Z,60.13
2019-05-12T08:01:02.459Z,59.19
2019-05-12T08:03:44.983Z,58.55
2019-05-12T08:06:14.209Z,58.55
2019-05-12T08:09:00.832Z,57.58
2019-05-12T08:14:27.661Z,56.84
2019-05-12T08:17:12.185Z,56.63
2019-05-12T08:19:56.792Z,56.63
2019-05-12T08:25:18.908Z,57.46
2019-05-12T08:30:52.065Z,58.09
2019-05-12T08:33:34.671Z,58.06
2019-05-12T08:36:24.253Z,58.06
2019-05-12T08:38:53.659Z,57.37
2019-05-12T08:41:40.068Z,56.42
2019-05-12T08:44:09.355Z,56.42
2019-05-12T08:49:51.134Z,57.28
2019-05-12T08:52:36.289Z,57.28
2019-05-12T08:54:59.896Z,57.41
2019-05-12T08:57:49.344Z,57.22
2019-05-12T09:00:15.553Z,56.91
2019-05-12T09:03:03.556Z,55.97
2019-05-12T09:08:55.202Z,55.07
2019-05-12T09:11:24.287Z,54.44
2019-05-12T09:14:10.919Z,54.16
2019-05-12T09:16:38.642Z,53.96
2019-05-12T09:19:27.243Z,53.04
2019-05-12T09:22:16.844Z,53.25
2019-05-12T09:25:06.341Z,53.25
2019-05-12T09:27:30.947Z,53.17
2019-05-12T09:30:17.363Z,53.64
2019-05-12T09:35:39.210Z,54.77
2019-05-12T09:41:20.431Z,54.57
2019-05-12T09:43:50.278Z,54.57
2019-05-12T09:46:37.467Z,52.00
2019-05-12T09:52:05.011Z,50.48
2019-05-12T09:54:35.532Z,50.48
2019-05-12T09:57:04.406Z,50.15
2019-05-12T09:59:33.609Z,49.94
2019-05-12T10:05:06.627Z,50.51
2019-05-12T10:07:34.615Z,49.65
2019-05-12T10:10:03.684Z,49.65
2019-05-12T10:12:38.644Z,49.92
2019-05-12T10:15:04.317Z,49.51
2019-05-12T10:17:33.991Z,49.41
2019-05-12T10:20:01.321Z,49.82
2019-05-12T10:22:47.262Z,50.74
2019-05-12T10:25:14.910Z,49.81
2019-05-12T10:27:45.726Z,46.86
2019-05-12T10:30:17.104Z,46.86
2019-05-12T10:32:43.669Z,44.68
2019-05-12T10:35:20.529Z,44.38
2019-05-12T10:37:44.400Z,44.87
2019-05-12T10:40:13.996Z,45.69
2019-05-12T10:42:46.003Z,47.98
2019-05-12T10:45:18.969Z,47.98
2019-05-12T10:47:40.595Z,48.38
2019-05-12T10:50:08.674Z,46.67
2019-05-12T10:52:38.924Z,46.67
2019-05-12T10:55:05.596Z,43.88
2019-05-12T10:57:33.910Z,43.88
2019-05-12T11:00:03.972Z,42.21
2019-05-12T11:02:30.760Z,41.09
2019-05-12T11:04:58.710Z,40.42
2019-05-12T11:07:28.127Z,41.30
2019-05-12T11:10:13.565Z,43.22
2019-05-12T11:12:33.365Z,45.06
2019-05-12T11:15:08.532Z,46.56
2019-05-12T11:17:54.136Z,45.77
2019-05-12T11:20:21.950Z,43.93
2019-05-12T11:22:54.219Z,41.74
2019-05-12T11:25:21.698Z,41.11
2019-05-12T11:27:49.306Z,44.08
2019-05-12T11:30:18.965Z,44.08
2019-05-12T11:32:46.576Z,45.39
2019-05-12T11:35:14.407Z,45.39
2019-05-12T11:37:42.192Z,44.86
2019-05-12T11:40:09.898Z,44.71
2019-05-12T11:42:37.567Z,43.75
2019-05-12T11:45:05.622Z,42.05
2019-05-12T11:47:34.630Z,40.88
2019-05-12T11:50:09.781Z,41.45
2019-05-12T11:52:34.237Z,44.09
2019-05-12T11:55:01.836Z,44.11
2019-05-12T11:57:31.134Z,44.11
2019-05-12T12:00:01.988Z,41.71
2019-05-12T12:02:30.364Z,39.94
2019-05-12T12:04:58.094Z,37.91
2019-05-12T12:07:26.091Z,36.43
2019-05-12T12:09:56.128Z,36.23
2019-05-12T12:12:49.109Z,37.08
2019-05-12T12:14:54.037Z,38.93
2019-05-12T12:17:22.829Z,41.06
2019-05-12T12:19:50.799Z,41.19
2019-05-12T12:22:20.489Z,41.00
2019-05-12T12:24:48.053Z,41.65
2019-05-12T12:27:15.704Z,42.95
2019-05-12T12:29:44.039Z,44.00
2019-05-12T12:32:20.268Z,45.73
2019-05-12T12:34:45.722Z,45.73
2019-05-12T12:37:24.119Z,44.36
2019-05-12T12:39:50.394Z,43.50
2019-05-12T12:42:21.085Z,43.50
2019-05-12T12:44:53.497Z,42.40
2019-05-12T12:47:18.473Z,41.57
2019-05-12T12:49:49.272Z,38.41
2019-05-12T12:52:15.781Z,38.41
2019-05-12T12:54:45.665Z,39.01
2019-05-12T12:57:13.819Z,41.48
2019-05-12T12:59:45.375Z,41.48
2019-05-12T13:02:11.235Z,42.75
2019-05-12T13:04:39.717Z,43.45
2019-05-12T13:07:08.392Z,42.74
2019-05-12T13:09:38.450Z,40.95
2019-05-12T13:12:14.188Z,38.78
2019-05-12T13:14:44.219Z,37.14
2019-05-12T13:17:11.005Z,35.62
2019-05-12T13:19:38.709Z,35.62
2019-05-12T13:22:14.989Z,33.90
2019-05-12T13:24:38.736Z,33.08
2019-05-12T13:27:06.464Z,33.08
2019-05-12T13:29:39.527Z,35.51
2019-05-12T13:32:03.601Z,35.51
2019-05-12T13:34:34.751Z,37.74
2019-05-12T13:37:00.860Z,36.42
2019-05-12T13:39:28.409Z,36.42
2019-05-12T13:42:00.104Z,36.13
2019-05-12T13:44:30.274Z,37.61
2019-05-12T13:47:00.114Z,39.15
2019-05-12T13:49:36.199Z,37.79
2019-05-12T13:52:04.079Z,35.65
2019-05-12T13:54:30.473Z,35.65
2019-05-12T13:57:03.726Z,36.10
2019-05-12T13:59:30.352Z,37.57
2019-05-12T14:01:58.426Z,39.21
2019-05-12T14:04:27.708Z,39.20
2019-05-12T14:06:55.338Z,38.14
2019-05-12T14:09:23.874Z,40.00
2019-05-12T14:11:53.714Z,40.00
2019-05-12T14:14:20.753Z,41.83
2019-05-12T14:16:57.040Z,42.90
2019-05-12T14:19:23.417Z,43.05
2019-05-12T14:21:57.499Z,40.65
2019-05-12T14:24:25.061Z,40.55
2019-05-12T14:26:59.734Z,41.41
2019-05-12T14:29:30.497Z,42.22
2019-05-12T14:32:02.404Z,43.69
2019-05-12T14:34:26.794Z,43.69
2019-05-12T14:37:05.562Z,43.89
2019-05-12T14:39:31.139Z,43.96
2019-05-12T14:41:59.183Z,43.51
2019-05-12T14:44:28.140Z,43.30
2019-05-12T14:47:05.205Z,42.32
2019-05-12T14:49:33.358Z,41.40
2019-05-12T14:52:03.261Z,39.48
2019-05-12T14:54:30.607Z,38.36
2019-05-12T14:57:03.384Z,37.71
2019-05-12T14:59:36.596Z,37.71
2019-05-12T15:02:03.132Z,35.92
2019-05-12T15:04:30.039Z,35.92
2019-05-12T15:06:59.782Z,34.68
2019-05-12T15:09:31.161Z,33.42
2019-05-12T15:11:59.062Z,32.38
2019-05-12T15:14:32.487Z,31.57
2019-05-12T15:17:00.080Z,31.16
2019-05-12T15:19:29.812Z,31.79
2019-05-12T15:22:01.561Z,33.66
2019-05-12T15:24:28.654Z,33.78
2019-05-12T15:27:00.466Z,35.24
2019-05-12T15:29:26.106Z,35.24
2019-05-12T15:31:56.704Z,36.58
2019-05-12T15:34:23.801Z,38.06
2019-05-12T15:36:56.000Z,39.40
2019-05-12T15:39:21.132Z,40.43
2019-05-12T15:41:51.097Z,40.67
2019-05-12T15:44:24.863Z,40.67
2019-05-12T15:46:49.421Z,41.47
2019-05-12T15:49:18.017Z,41.88
2019-05-12T15:51:54.259Z,42.42
2019-05-12T15:54:19.881Z,42.42
2019-05-12T15:56:47.463Z,42.64
2019-05-12T15:59:17.438Z,42.66
2019-05-12T16:01:44.648Z,42.43
2019-05-12T16:04:15.510Z,42.43
2019-05-12T16:06:52.896Z,43.51
2019-05-12T16:09:14.130Z,43.51
2019-05-12T16:11:52.075Z,43.11
2019-05-12T16:14:19.610Z,43.17
2019-05-12T16:16:50.106Z,42.19
2019-05-12T16:19:26.567Z,38.22
2019-05-12T16:21:54.153Z,38.22
2019-05-12T16:24:23.637Z,36.38
2019-05-12T16:26:56.717Z,34.85
2019-05-12T16:29:45.435Z,34.86
2019-05-12T16:32:47.519Z,34.86
2019-05-12T16:35:06.884Z,34.37
2019-05-12T16:37:50.453Z,35.87
2019-05-12T16:40:51.319Z,37.67
2019-05-12T16:43:29.235Z,39.45
2019-05-12T16:46:15.419Z,42.06
2019-05-12T16:49:03.344Z,42.06
2019-05-12T16:51:43.739Z,42.50
2019-05-12T16:54:19.543Z,42.60
2019-05-12T16:57:29.189Z,42.60
2019-05-12T17:00:02.482Z,42.81
2019-05-12T17:03:05.831Z,43.02
2019-05-12T17:05:45.069Z,43.08
2019-05-12T17:08:00.312Z,43.23
2019-05-12T17:10:58.323Z,43.35
2019-05-12T17:13:16.195Z,43.35
2019-05-12T17:16:04.451Z,44.18
2019-05-12T17:21:25.457Z,44.48
2019-05-12T17:23:53.165Z,44.74
2019-05-12T17:26:41.163Z,44.96
2019-05-12T17:29:08.870Z,45.19
2019-05-12T17:31:36.660Z,45.42
2019-05-12T17:44:46.612Z,46.02
2019-05-12T17:50:19.468Z,46.14
2019-05-12T17:58:47.363Z,46.17
2019-05-12T18:01:14.330Z,46.32
2019-05-12T18:04:04.324Z,46.32
2019-05-12T18:06:34.080Z,46.58
2019-05-12T18:09:20.328Z,46.58
2019-05-12T18:14:46.754Z,47.05
2019-05-12T18:17:09.359Z,47.05
2019-05-12T18:19:36.980Z,47.07
2019-05-12T18:22:23.635Z,47.25
2019-05-12T18:25:11.411Z,47.43
2019-05-12T18:27:57.768Z,47.53
2019-05-12T18:33:29.593Z,47.62
2019-05-12T18:36:06.017Z,48.33
2019-05-12T18:38:56.226Z,48.30
2019-05-12T18:44:31.096Z,48.47
2019-05-12T18:46:57.071Z,48.47
2019-05-12T18:49:24.818Z,49.11
2019-05-12T18:52:11.289Z,49.25
2019-05-12T18:54:57.141Z,49.38
2019-05-12T18:57:44.927Z,49.56
2019-05-12T19:00:01.518Z,49.75
2019-05-12T19:02:46.225Z,50.03
2019-05-12T19:05:21.961Z,50.03
2019-05-12T19:10:51.633Z,50.68
2019-05-12T19:13:19.016Z,50.68
2019-05-12T19:16:07.316Z,50.23
2019-05-12T19:18:37.319Z,50.23
2019-05-12T19:21:23.647Z,50.68
2019-05-12T19:24:17.480Z,50.86
2019-05-12T19:27:18.968Z,50.98
2019-05-12T19:32:36.849Z,51.59
2019-05-12T19:35:20.299Z,51.44
2019-05-12T19:37:53.821Z,51.60
2019-05-12T19:43:28.152Z,51.54
2019-05-12T19:46:14.589Z,51.58
2019-05-12T19:50:07.220Z,51.58
2019-05-12T19:54:38.322Z,51.19
2019-05-12T19:57:26.409Z,51.39
2019-05-12T20:00:25.351Z,51.39
2019-05-12T20:05:35.212Z,51.31
2019-05-12T20:11:03.618Z,51.38
2019-05-12T20:13:50.064Z,51.54
2019-05-12T20:16:36.515Z,51.54
2019-05-12T20:22:13.805Z,51.80
2019-05-12T20:24:41.331Z,51.92
2019-05-12T20:27:27.712Z,52.04
2019-05-12T20:32:47.481Z,52.31
2019-05-12T20:35:33.918Z,52.89
2019-05-12T20:38:25.392Z,53.07
2019-05-12T20:43:55.006Z,52.88
2019-05-12T20:46:15.466Z,52.96
2019-05-12T20:49:01.066Z,53.37
2019-05-12T20:51:27.791Z,53.16
2019-05-12T20:54:18.090Z,53.26
2019-05-12T20:56:43.574Z,53.26
2019-05-12T20:59:34.213Z,53.44
2019-05-12T21:02:03.636Z,53.52
2019-05-12T21:05:00.537Z,53.67
2019-05-12T21:07:22.148Z,53.80
2019-05-12T21:09:49.337Z,53.95
2019-05-12T21:12:40.090Z,54.07
2019-05-12T21:15:55.174Z,54.29
2019-05-12T21:18:15.811Z,54.29
2019-05-12T21:21:03.538Z,54.27
2019-05-12T21:23:53.869Z,54.27
2019-05-12T21:26:19.962Z,54.75
2019-05-12T21:29:06.325Z,54.88
2019-05-12T21:31:53.156Z,55.44
2019-05-12T21:34:57.812Z,55.44
2019-05-12T21:37:10.399Z,55.32
2019-05-12T21:39:56.850Z,55.47
2019-05-12T21:42:44.639Z,55.46
2019-05-12T21:45:31.396Z,55.46
2019-05-12T21:48:23.531Z,56.07
2019-05-12T21:51:09.773Z,56.07
2019-05-12T21:53:56.189Z,56.11
2019-05-12T21:56:44.892Z,56.42
2019-05-12T21:59:13.391Z,56.42
2019-05-12T22:01:43.184Z,56.44
2019-05-12T22:04:10.374Z,56.51
2019-05-12T22:06:57.458Z,56.93
2019-05-12T22:09:47.052Z,56.67
2019-05-12T22:15:21.442Z,56.56
2019-05-12T22:18:07.861Z,56.59
2019-05-12T22:23:11.843Z,56.63
2019-05-12T22:25:43.553Z,56.71
2019-05-12T22:28:13.258Z,56.47
2019-05-12T22:30:40.758Z,56.47
2019-05-12T22:33:27.187Z,57.24
2019-05-12T22:36:26.830Z,57.24
2019-05-12T22:41:41.933Z,57.61
2019-05-12T22:44:28.378Z,57.71
2019-05-12T22:46:55.991Z,57.71
2019-05-12T22:49:44.256Z,57.85
2019-05-12T22:52:13.646Z,57.85
2019-05-12T22:57:39.935Z,57.86
2019-05-12T23:02:45.683Z,57.71
2019-05-12T23:05:32.381Z,58.01
2019-05-12T23:08:21.560Z,57.57
2019-05-12T23:11:07.981Z,57.74
2019-05-12T23:13:40.889Z,57.74
2019-05-12T23:19:01.434Z,57.30
2019-05-12T23:21:49.285Z,57.37
2019-05-12T23:24:39.210Z,58.04
2019-05-12T23:27:25.227Z,58.04
2019-05-12T23:29:53.256Z,57.71
2019-05-12T23:34:58.713Z,57.96
2019-05-12T23:37:45.244Z,58.08
2019-05-12T23:40:34.260Z,58.77
2019-05-12T23:43:19.970Z,58.21
2019-05-12T23:51:16.985Z,58.66
2019-05-12T23:54:03.928Z,58.35
2019-05-12T23:59:20.271Z,59.30
